Aeroporto :
LOGIN :

Iscrizione | Disclaimer

   EN    FR    IT 

 










Sommario :    VFR   VFR Marginale   IFR   IFR Intensivo   IFR Molto Intensivo
Visibilità : 
Base nubi : 
>= 8 km
>= 3000ft
5 / 8 km
1000 / 3000 ft
1500m / 5 km
500 / 1000 ft
800 / 1500m
200 / 500 ft
< 800m
< 200 ft
Simboli :   Temporali  Nebbia  Neve Forte  Precipitazioni Forti  Vento > 20 kt
SIGMETs :   Varie  Temporali  Ghiacco  Turbolenza  Onda orograficha  Ceneri Vulcaniche







- Altitudine del aeroporto : 157 ft
- Codice IATA : LIL
- Carte del aeroporto


LFQQ - Lille Lesquin

ULTIMO METAR :
  • 190530Z AUTO 07001KT 2700 0800 R26/0900U R08/P2000 BCFG NSC 00/M00 Q1026 BECMG 7000 NSW

METARs OBSOLETI :
  • 190500Z AUTO 00000KT 5000 BR NSC 01/00 Q1026 NOSIG
  • 190430Z AUTO 09001KT 6000 NSC 00/00 Q1026 TEMPO 3000 BR
  • 190400Z AUTO 00000KT 6000 NSC 00/M00 Q1026 TEMPO 3000 BR
  • 190330Z AUTO 00000KT 6000 NSC 00/M00 Q1026 TEMPO 0800 BCFG
  • 190300Z AUTO 00000KT 7000 NSC 01/M00 Q1026 TEMPO 0800 BCFG

TAF AMD TAF LFQQ
Valido dal 19 a 03 ore il 20 a 06 ore UTC


190328Z 1903/2006 VRB02KT 7000 SCT040
TEMPO 1903/1907 3000 BR
BECMG 1908/1910 25007KT
PROB30
TEMPO 1916/1918 4000 SHRA BKN020TCU
BECMG 1921/1924 3000 BR
BECMG 2000/2003 OVC003
ATIS : +33 3 20 16 19 54
Nessun NOTAM noto per questo aeroporto.



MetMap, La meteo Aeronautica in un colpo d'occhio ! - Copyright ORBIFLY Dicembre 2007 - Disclaimer

ORBIFLY MET'MAP TEAM :

Programmazione e sviluppo : Alexandra Zaïnal
Concezione e sviluppo : Baudouin d'Aumeries
Co-Programmazione e sviluppo : Marc-Olivier Méhu
Supporto tecnico e logistico : Manuel Goepfert
Aiuto per la traduzione : Arnaldo La Scala

Contatto : metmap@orbifly.com




FONTI E CREDITI :

   NOAA